sensor_id;sensor_type;location;lat;lon;timestamp;pressure;altitude;pressure_sealevel;temperature;humidity
63399;BME280;49533;-34.520;150.798;2023-04-24T00:01:45;102360.56;;;22.15;59.96
63399;BME280;49533;-34.520;150.798;2023-04-24T00:04:12;102326.59;;;21.93;59.57
63399;BME280;49533;-34.520;150.798;2023-04-24T00:06:40;102382.41;;;22.29;59.34
63399;BME280;49533;-34.520;150.798;2023-04-24T00:09:10;102386.34;;;22.28;59.83
63399;BME280;49533;-34.520;150.798;2023-04-24T00:11:37;102315.06;;;21.91;59.47
63399;BME280;49533;-34.520;150.798;2023-04-24T00:14:04;102375.75;;;22.30;59.46
63399;BME280;49533;-34.520;150.798;2023-04-24T00:16:32;102351.78;;;22.13;59.66
63399;BME280;49533;-34.520;150.798;2023-04-24T00:18:59;102367.78;;;22.28;59.64
63399;BME280;49533;-34.520;150.798;2023-04-24T00:21:27;102334.25;;;22.09;59.72
63399;BME280;49533;-34.520;150.798;2023-04-24T00:23:54;102320.38;;;21.97;59.32
63399;BME280;49533;-34.520;150.798;2023-04-24T00:26:21;102352.88;;;22.21;59.68
63399;BME280;49533;-34.520;150.798;2023-04-24T00:28:49;102348.97;;;22.22;59.50
63399;BME280;49533;-34.520;150.798;2023-04-24T00:31:16;102267.13;;;21.66;59.30
63399;BME280;49533;-34.520;150.798;2023-04-24T00:33:43;102375.06;;;22.33;59.24
63399;BME280;49533;-34.520;150.798;2023-04-24T00:36:10;102381.31;;;22.42;59.51
63399;BME280;49533;-34.520;150.798;2023-04-24T00:38:38;102340.84;;;22.17;59.10
63399;BME280;49533;-34.520;150.798;2023-04-24T00:41:05;102379.69;;;22.41;59.38
63399;BME280;49533;-34.520;150.798;2023-04-24T00:43:33;102335.16;;;22.13;59.37
63399;BME280;49533;-34.520;150.798;2023-04-24T00:46:00;102344.69;;;22.24;59.10
63399;BME280;49533;-34.520;150.798;2023-04-24T00:48:28;102372.19;;;22.42;59.04
63399;BME280;49533;-34.520;150.798;2023-04-24T00:50:56;102351.28;;;22.32;59.11
63399;BME280;49533;-34.520;150.798;2023-04-24T00:53:24;102357.53;;;22.41;59.01
63399;BME280;49533;-34.520;150.798;2023-04-24T00:55:52;102361.94;;;22.42;59.33
63399;BME280;49533;-34.520;150.798;2023-04-24T00:58:19;102351.06;;;22.37;59.01
63399;BME280;49533;-34.520;150.798;2023-04-24T01:00:46;102357.66;;;22.45;59.02
63399;BME280;49533;-34.520;150.798;2023-04-24T01:03:17;102360.06;;;22.46;58.99
63399;BME280;49533;-34.520;150.798;2023-04-24T01:05:44;102335.13;;;22.34;58.87
63399;BME280;49533;-34.520;150.798;2023-04-24T01:08:12;102351.75;;;22.46;58.62
63399;BME280;49533;-34.520;150.798;2023-04-24T01:10:40;102352.94;;;22.45;58.59
63399;BME280;49533;-34.520;150.798;2023-04-24T01:13:08;102271.47;;;22.01;58.79
63399;BME280;49533;-34.520;150.798;2023-04-24T01:15:36;102330.78;;;22.45;58.79
63399;BME280;49533;-34.520;150.798;2023-04-24T01:18:03;102287.88;;;22.18;58.85
63399;BME280;49533;-34.520;150.798;2023-04-24T01:20:31;102319.13;;;22.40;58.46
63399;BME280;49533;-34.520;150.798;2023-04-24T01:22:59;102328.47;;;22.47;58.35
63399;BME280;49533;-34.520;150.798;2023-04-24T01:25:28;102289.44;;;22.28;58.36
63399;BME280;49533;-34.520;150.798;2023-04-24T01:27:56;102286.66;;;22.28;58.63
63399;BME280;49533;-34.520;150.798;2023-04-24T01:30:23;102312.91;;;22.55;58.54
63399;BME280;49533;-34.520;150.798;2023-04-24T01:32:51;102318.06;;;22.56;58.67
63399;BME280;49533;-34.520;150.798;2023-04-24T01:35:19;102296.94;;;22.52;58.60
63399;BME280;49533;-34.520;150.798;2023-04-24T01:37:47;102315.44;;;22.60;58.71
63399;BME280;49533;-34.520;150.798;2023-04-24T01:40:14;102303.19;;;22.61;58.58
63399;BME280;49533;-34.520;150.798;2023-04-24T01:42:42;102265.47;;;22.32;58.50
63399;BME280;49533;-34.520;150.798;2023-04-24T01:45:11;102283.00;;;22.48;58.68
63399;BME280;49533;-34.520;150.798;2023-04-24T01:47:39;102272.94;;;22.44;58.93
63399;BME280;49533;-34.520;150.798;2023-04-24T01:50:07;102298.13;;;22.63;58.66
63399;BME280;49533;-34.520;150.798;2023-04-24T01:52:35;102298.59;;;22.65;58.85
63399;BME280;49533;-34.520;150.798;2023-04-24T01:55:04;102294.97;;;22.65;58.19
63399;BME280;49533;-34.520;150.798;2023-04-24T01:57:33;102252.28;;;22.41;58.56
63399;BME280;49533;-34.520;150.798;2023-04-24T02:00:00;102274.13;;;22.55;58.22
63399;BME280;49533;-34.520;150.798;2023-04-24T02:02:30;102284.25;;;22.63;58.39
63399;BME280;49533;-34.520;150.798;2023-04-24T02:04:57;102258.53;;;22.50;58.11
63399;BME280;49533;-34.520;150.798;2023-04-24T02:07:25;102245.63;;;22.42;58.44
63399;BME280;49533;-34.520;150.798;2023-04-24T02:09:52;102239.59;;;22.40;58.32
63399;BME280;49533;-34.520;150.798;2023-04-24T02:12:19;102261.97;;;22.60;58.60
63399;BME280;49533;-34.520;150.798;2023-04-24T02:14:46;102212.13;;;22.23;58.58
63399;BME280;49533;-34.520;150.798;2023-04-24T02:17:13;102267.06;;;22.57;58.69
63399;BME280;49533;-34.520;150.798;2023-04-24T02:19:42;102247.44;;;22.50;58.55
63399;BME280;49533;-34.520;150.798;2023-04-24T02:22:10;102256.34;;;22.56;58.62
63399;BME280;49533;-34.520;150.798;2023-04-24T02:24:38;102247.22;;;22.55;58.56
63399;BME280;49533;-34.520;150.798;2023-04-24T02:27:05;102231.16;;;22.49;58.87
63399;BME280;49533;-34.520;150.798;2023-04-24T02:29:33;102234.50;;;22.54;58.51
63399;BME280;49533;-34.520;150.798;2023-04-24T02:32:01;102232.19;;;22.56;58.61
63399;BME280;49533;-34.520;150.798;2023-04-24T02:34:28;102223.91;;;22.56;58.75
63399;BME280;49533;-34.520;150.798;2023-04-24T02:36:55;102222.28;;;22.55;58.61
63399;BME280;49533;-34.520;150.798;2023-04-24T02:39:23;102197.59;;;22.38;58.92
63399;BME280;49533;-34.520;150.798;2023-04-24T02:41:50;102211.31;;;22.47;58.53
63399;BME280;49533;-34.520;150.798;2023-04-24T02:44:17;102211.09;;;22.52;58.79
63399;BME280;49533;-34.520;150.798;2023-04-24T02:46:44;102191.38;;;22.41;58.55
63399;BME280;49533;-34.520;150.798;2023-04-24T02:49:12;102216.50;;;22.61;57.96
63399;BME280;49533;-34.520;150.798;2023-04-24T02:51:39;102214.88;;;22.60;56.70
63399;BME280;49533;-34.520;150.798;2023-04-24T02:54:08;102162.41;;;22.26;57.54
63399;BME280;49533;-34.520;150.798;2023-04-24T02:56:36;102192.53;;;22.52;57.00
63399;BME280;49533;-34.520;150.798;2023-04-24T02:59:04;102158.38;;;22.24;56.79
63399;BME280;49533;-34.520;150.798;2023-04-24T03:01:31;102205.44;;;22.61;56.51
63399;BME280;49533;-34.520;150.798;2023-04-24T03:03:58;102084.13;;;21.89;57.46
63399;BME280;49533;-34.520;150.798;2023-04-24T03:06:26;102186.03;;;22.61;57.96
63399;BME280;49533;-34.520;150.798;2023-04-24T03:08:53;102143.63;;;22.32;57.89
63399;BME280;49533;-34.520;150.798;2023-04-24T03:11:20;102161.34;;;22.55;57.35
63399;BME280;49533;-34.520;150.798;2023-04-24T03:13:48;102146.81;;;22.46;57.72
63399;BME280;49533;-34.520;150.798;2023-04-24T03:16:15;102173.09;;;22.65;57.87
63399;BME280;49533;-34.520;150.798;2023-04-24T03:18:42;102155.81;;;22.55;56.97
63399;BME280;49533;-34.520;150.798;2023-04-24T03:21:09;102161.31;;;22.68;57.09
63399;BME280;49533;-34.520;150.798;2023-04-24T03:23:36;102170.78;;;22.67;57.22
63399;BME280;49533;-34.520;150.798;2023-04-24T03:26:03;102140.22;;;22.51;55.86
63399;BME280;49533;-34.520;150.798;2023-04-24T03:28:31;102137.22;;;22.56;56.76
63399;BME280;49533;-34.520;150.798;2023-04-24T03:30:58;102164.53;;;22.70;56.97
63399;BME280;49533;-34.520;150.798;2023-04-24T03:33:26;102043.63;;;21.97;56.80
63399;BME280;49533;-34.520;150.798;2023-04-24T03:35:53;102152.66;;;22.69;56.51
63399;BME280;49533;-34.520;150.798;2023-04-24T03:38:21;102145.50;;;22.68;56.23
63399;BME280;49533;-34.520;150.798;2023-04-24T03:40:48;102114.03;;;22.48;56.99
63399;BME280;49533;-34.520;150.798;2023-04-24T03:43:15;102109.91;;;22.42;55.92
63399;BME280;49533;-34.520;150.798;2023-04-24T03:45:42;102028.75;;;22.01;57.06
63399;BME280;49533;-34.520;150.798;2023-04-24T03:48:09;102132.47;;;22.69;57.58
63399;BME280;49533;-34.520;150.798;2023-04-24T03:50:36;102118.75;;;22.60;57.23
63399;BME280;49533;-34.520;150.798;2023-04-24T03:53:03;102083.72;;;22.40;56.91
63399;BME280;49533;-34.520;150.798;2023-04-24T03:55:30;102127.25;;;22.67;57.28
63399;BME280;49533;-34.520;150.798;2023-04-24T03:57:58;102117.25;;;22.63;57.09
63399;BME280;49533;-34.520;150.798;2023-04-24T04:00:25;102136.56;;;22.75;57.76
63399;BME280;49533;-34.520;150.798;2023-04-24T04:02:53;102116.53;;;22.66;57.25
63399;BME280;49533;-34.520;150.798;2023-04-24T04:05:21;102133.72;;;22.71;57.42
63399;BME280;49533;-34.520;150.798;2023-04-24T04:07:48;102129.78;;;22.72;57.66
63399;BME280;49533;-34.520;150.798;2023-04-24T04:10:15;102132.13;;;22.70;57.88
63399;BME280;49533;-34.520;150.798;2023-04-24T04:12:43;102138.78;;;22.69;58.26
63399;BME280;49533;-34.520;150.798;2023-04-24T04:15:10;102130.38;;;22.66;58.14
63399;BME280;49533;-34.520;150.798;2023-04-24T04:17:38;102121.84;;;22.71;58.15
63399;BME280;49533;-34.520;150.798;2023-04-24T04:20:05;102111.13;;;22.57;58.15
63399;BME280;49533;-34.520;150.798;2023-04-24T04:22:36;102122.63;;;22.71;58.16
63399;BME280;49533;-34.520;150.798;2023-04-24T04:25:04;102107.22;;;22.58;58.05
63399;BME280;49533;-34.520;150.798;2023-04-24T04:27:31;102113.78;;;22.66;58.39
63399;BME280;49533;-34.520;150.798;2023-04-24T04:30:00;102123.44;;;22.72;58.29
63399;BME280;49533;-34.520;150.798;2023-04-24T04:32:32;102089.59;;;22.50;58.16
63399;BME280;49533;-34.520;150.798;2023-04-24T04:35:00;102130.59;;;22.73;58.16
63399;BME280;49533;-34.520;150.798;2023-04-24T04:37:31;102029.88;;;22.12;58.18
63399;BME280;49533;-34.520;150.798;2023-04-24T04:40:00;102097.09;;;22.50;58.40
63399;BME280;49533;-34.520;150.798;2023-04-24T04:42:27;102100.88;;;22.57;58.20
63399;BME280;49533;-34.520;150.798;2023-04-24T04:44:58;102121.59;;;22.76;58.03
63399;BME280;49533;-34.520;150.798;2023-04-24T04:47:25;102084.84;;;22.51;58.37
63399;BME280;49533;-34.520;150.798;2023-04-24T04:49:54;102087.94;;;22.49;58.22
63399;BME280;49533;-34.520;150.798;2023-04-24T04:52:22;102120.41;;;22.77;58.27
63399;BME280;49533;-34.520;150.798;2023-04-24T04:54:51;102090.22;;;22.60;58.39
63399;BME280;49533;-34.520;150.798;2023-04-24T04:57:18;102121.69;;;22.79;58.11
63399;BME280;49533;-34.520;150.798;2023-04-24T04:59:46;102053.63;;;22.26;58.36
63399;BME280;49533;-34.520;150.798;2023-04-24T05:02:14;102119.69;;;22.80;58.51
63399;BME280;49533;-34.520;150.798;2023-04-24T05:04:41;102123.44;;;22.72;58.44
63399;BME280;49533;-34.520;150.798;2023-04-24T05:07:08;102071.56;;;22.44;58.59
63399;BME280;49533;-34.520;150.798;2023-04-24T05:09:35;102111.88;;;22.70;58.44
63399;BME280;49533;-34.520;150.798;2023-04-24T05:12:03;102101.88;;;22.65;58.36
63399;BME280;49533;-34.520;150.798;2023-04-24T05:14:30;102119.28;;;22.78;58.17
63399;BME280;49533;-34.520;150.798;2023-04-24T05:16:57;102111.63;;;22.75;58.13
63399;BME280;49533;-34.520;150.798;2023-04-24T05:19:24;102119.69;;;22.80;58.05
63399;BME280;49533;-34.520;150.798;2023-04-24T05:21:51;102119.69;;;22.80;57.94
63399;BME280;49533;-34.520;150.798;2023-04-24T05:24:18;102118.09;;;22.79;58.25
63399;BME280;49533;-34.520;150.798;2023-04-24T05:26:46;102105.47;;;22.66;58.09
63399;BME280;49533;-34.520;150.798;2023-04-24T05:29:13;102108.63;;;22.80;58.12
63399;BME280;49533;-34.520;150.798;2023-04-24T05:31:40;102111.75;;;22.78;57.95
63399;BME280;49533;-34.520;150.798;2023-04-24T05:34:07;102081.91;;;22.60;58.12
63399;BME280;49533;-34.520;150.798;2023-04-24T05:36:35;102106.47;;;22.73;57.71
63399;BME280;49533;-34.520;150.798;2023-04-24T05:39:03;102072.84;;;22.47;57.51
63399;BME280;49533;-34.520;150.798;2023-04-24T05:41:31;102103.81;;;22.65;57.79
63399;BME280;49533;-34.520;150.798;2023-04-24T05:43:58;102108.31;;;22.69;57.94
63399;BME280;49533;-34.520;150.798;2023-04-24T05:46:25;102090.47;;;22.54;57.95
63399;BME280;49533;-34.520;150.798;2023-04-24T05:48:52;102117.81;;;22.68;57.69
63399;BME280;49533;-34.520;150.798;2023-04-24T05:51:19;102113.78;;;22.66;57.96
63399;BME280;49533;-34.520;150.798;2023-04-24T05:53:46;102111.25;;;22.61;58.01
63399;BME280;49533;-34.520;150.798;2023-04-24T05:56:14;102086.25;;;22.45;58.37
63399;BME280;49533;-34.520;150.798;2023-04-24T05:58:42;102111.84;;;22.54;58.95
63399;BME280;49533;-34.520;150.798;2023-04-24T06:01:09;102072.91;;;22.22;59.31
63399;BME280;49533;-34.520;150.798;2023-04-24T06:03:36;102067.94;;;22.15;59.64
63399;BME280;49533;-34.520;150.798;2023-04-24T06:06:04;102086.63;;;22.31;59.88
63399;BME280;49533;-34.520;150.798;2023-04-24T06:08:32;102066.78;;;22.17;59.84
63399;BME280;49533;-34.520;150.798;2023-04-24T06:10:59;102110.72;;;22.43;59.85
63399;BME280;49533;-34.520;150.798;2023-04-24T06:13:26;102081.69;;;22.24;60.60
63399;BME280;49533;-34.520;150.798;2023-04-24T06:15:54;102001.91;;;21.77;60.38
63399;BME280;49533;-34.520;150.798;2023-04-24T06:18:21;102125.59;;;22.50;60.31
63399;BME280;49533;-34.520;150.798;2023-04-24T06:20:48;102084.78;;;22.23;60.40
63399;BME280;49533;-34.520;150.798;2023-04-24T06:23:15;102121.88;;;22.46;60.75
63399;BME280;49533;-34.520;150.798;2023-04-24T06:25:46;102094.03;;;22.27;60.01
63399;BME280;49533;-34.520;150.798;2023-04-24T06:28:13;102099.75;;;22.34;59.29
63399;BME280;49533;-34.520;150.798;2023-04-24T06:30:40;102096.66;;;22.35;59.45
63399;BME280;49533;-34.520;150.798;2023-04-24T06:33:07;102120.53;;;22.40;60.21
63399;BME280;49533;-34.520;150.798;2023-04-24T06:35:34;102064.03;;;22.17;60.13
63399;BME280;49533;-34.520;150.798;2023-04-24T06:38:02;102115.88;;;22.56;59.83
63399;BME280;49533;-34.520;150.798;2023-04-24T06:40:29;102067.69;;;22.33;59.54
63399;BME280;49533;-34.520;150.798;2023-04-24T06:42:57;102109.50;;;22.68;59.36
63399;BME280;49533;-34.520;150.798;2023-04-24T06:45:26;102105.81;;;22.64;59.42
63399;BME280;49533;-34.520;150.798;2023-04-24T06:47:56;102081.03;;;22.55;59.12
63399;BME280;49533;-34.520;150.798;2023-04-24T06:50:23;102113.28;;;22.76;59.20
63399;BME280;49533;-34.520;150.798;2023-04-24T06:52:51;102104.03;;;22.72;58.91
63399;BME280;49533;-34.520;150.798;2023-04-24T06:55:18;102119.03;;;22.83;58.89
63399;BME280;49533;-34.520;150.798;2023-04-24T06:57:45;102110.25;;;22.81;58.93
63399;BME280;49533;-34.520;150.798;2023-04-24T07:00:14;102089.47;;;22.75;58.90
63399;BME280;49533;-34.520;150.798;2023-04-24T07:02:41;102103.53;;;22.82;58.84
63399;BME280;49533;-34.520;150.798;2023-04-24T07:05:08;102108.13;;;22.90;58.60
63399;BME280;49533;-34.520;150.798;2023-04-24T07:07:36;102117.25;;;22.91;58.65
63399;BME280;49533;-34.520;150.798;2023-04-24T07:10:05;102073.72;;;22.63;58.65
63399;BME280;49533;-34.520;150.798;2023-04-24T07:12:32;102092.38;;;22.78;58.82
63399;BME280;49533;-34.520;150.798;2023-04-24T07:15:00;102078.09;;;22.64;58.58
63399;BME280;49533;-34.520;150.798;2023-04-24T07:17:27;102090.75;;;22.77;58.76
63399;BME280;49533;-34.520;150.798;2023-04-24T07:19:55;102102.66;;;22.78;58.66
63399;BME280;49533;-34.520;150.798;2023-04-24T07:22:22;102122.69;;;22.87;58.65
63399;BME280;49533;-34.520;150.798;2023-04-24T07:24:49;102101.72;;;22.74;58.48
63399;BME280;49533;-34.520;150.798;2023-04-24T07:27:16;102048.78;;;22.35;58.13
63399;BME280;49533;-34.520;150.798;2023-04-24T07:29:43;102135.28;;;22.97;58.40
63399;BME280;49533;-34.520;150.798;2023-04-24T07:32:10;102106.22;;;22.78;58.26
63399;BME280;49533;-34.520;150.798;2023-04-24T07:34:37;102102.19;;;22.76;58.26
63399;BME280;49533;-34.520;150.798;2023-04-24T07:37:05;102104.16;;;22.75;58.01
63399;BME280;49533;-34.520;150.798;2023-04-24T07:39:32;102107.81;;;22.79;57.97
63399;BME280;49533;-34.520;150.798;2023-04-24T07:41:59;102098.97;;;22.74;57.99
63399;BME280;49533;-34.520;150.798;2023-04-24T07:44:28;102138.50;;;22.99;58.15
63399;BME280;49533;-34.520;150.798;2023-04-24T07:46:55;102140.47;;;22.98;57.75
63399;BME280;49533;-34.520;150.798;2023-04-24T07:49:23;102125.47;;;22.87;57.87
63399;BME280;49533;-34.520;150.798;2023-04-24T07:51:50;102126.38;;;22.91;57.57
63399;BME280;49533;-34.520;150.798;2023-04-24T07:54:18;102119.44;;;22.85;57.71
63399;BME280;49533;-34.520;150.798;2023-04-24T07:56:45;102141.34;;;23.03;57.64
63399;BME280;49533;-34.520;150.798;2023-04-24T07:59:12;102116.25;;;22.83;57.39
63399;BME280;49533;-34.520;150.798;2023-04-24T08:01:39;102149.69;;;23.03;57.85
63399;BME280;49533;-34.520;150.798;2023-04-24T08:04:07;102128.94;;;22.84;57.62
63399;BME280;49533;-34.520;150.798;2023-04-24T08:06:34;102153.25;;;23.03;57.43
63399;BME280;49533;-34.520;150.798;2023-04-24T08:09:01;102159.88;;;22.98;57.59
63399;BME280;49533;-34.520;150.798;2023-04-24T08:11:28;102153.84;;;22.96;57.63
63399;BME280;49533;-34.520;150.798;2023-04-24T08:13:55;102104.19;;;22.63;57.43
63399;BME280;49533;-34.520;150.798;2023-04-24T08:16:23;102164.94;;;22.96;57.89
63399;BME280;49533;-34.520;150.798;2023-04-24T08:18:50;102147.16;;;22.85;57.66
63399;BME280;49533;-34.520;150.798;2023-04-24T08:21:18;102162.88;;;22.93;57.35
63399;BME280;49533;-34.520;150.798;2023-04-24T08:23:46;102161.34;;;22.96;57.34
63399;BME280;49533;-34.520;150.798;2023-04-24T08:26:14;102164.47;;;22.94;57.34
63399;BME280;49533;-34.520;150.798;2023-04-24T08:28:41;102155.59;;;22.89;57.23
63399;BME280;49533;-34.520;150.798;2023-04-24T08:31:09;102130.59;;;22.73;57.23
63399;BME280;49533;-34.520;150.798;2023-04-24T08:33:36;102144.50;;;22.89;57.34
63399;BME280;49533;-34.520;150.798;2023-04-24T08:36:04;102159.72;;;22.95;57.23
63399;BME280;49533;-34.520;150.798;2023-04-24T08:38:32;102162.88;;;22.93;57.14
63399;BME280;49533;-34.520;150.798;2023-04-24T08:41:01;102136.56;;;22.75;57.33
63399;BME280;49533;-34.520;150.798;2023-04-24T08:43:28;102105.16;;;22.55;57.25
63399;BME280;49533;-34.520;150.798;2023-04-24T08:45:56;102152.28;;;22.83;57.21
63399;BME280;49533;-34.520;150.798;2023-04-24T08:48:24;102147.41;;;22.80;57.10
63399;BME280;49533;-34.520;150.798;2023-04-24T08:50:52;102170.72;;;22.91;57.18
63399;BME280;49533;-34.520;150.798;2023-04-24T08:53:20;102155.06;;;22.71;57.60
63399;BME280;49533;-34.520;150.798;2023-04-24T08:55:48;102167.28;;;22.82;57.12
63399;BME280;49533;-34.520;150.798;2023-04-24T08:58:17;102155.28;;;22.78;57.07
63399;BME280;49533;-34.520;150.798;2023-04-24T09:00:44;102159.00;;;22.70;57.27
63399;BME280;49533;-34.520;150.798;2023-04-24T09:03:15;102150.91;;;22.65;57.07
63399;BME280;49533;-34.520;150.798;2023-04-24T09:05:47;102169.50;;;22.76;57.17
63399;BME280;49533;-34.520;150.798;2023-04-24T09:08:17;102188.72;;;22.85;57.19
63399;BME280;49533;-34.520;150.798;2023-04-24T09:10:45;102189.19;;;22.87;56.99
63399;BME280;49533;-34.520;150.798;2023-04-24T09:13:12;102182.19;;;22.77;56.94
63399;BME280;49533;-34.520;150.798;2023-04-24T09:15:41;102201.44;;;22.86;56.92
63399;BME280;49533;-34.520;150.798;2023-04-24T09:18:08;102198.13;;;22.81;57.04
63399;BME280;49533;-34.520;150.798;2023-04-24T09:20:57;102202.16;;;22.83;57.15
63399;BME280;49533;-34.520;150.798;2023-04-24T09:23:27;102172.41;;;22.68;57.19
63399;BME280;49533;-34.520;150.798;2023-04-24T09:25:57;102133.34;;;22.45;57.24
63399;BME280;49533;-34.520;150.798;2023-04-24T09:28:30;102194.97;;;22.82;57.12
63399;BME280;49533;-34.520;150.798;2023-04-24T09:31:06;102171.47;;;22.64;57.00
63399;BME280;49533;-34.520;150.798;2023-04-24T09:33:33;102180.81;;;22.71;57.10
63399;BME280;49533;-34.520;150.798;2023-04-24T09:36:01;102148.06;;;22.49;57.22
63399;BME280;49533;-34.520;150.798;2023-04-24T09:38:33;102191.75;;;22.80;57.32
63399;BME280;49533;-34.520;150.798;2023-04-24T09:41:04;102184.06;;;22.73;57.25
63399;BME280;49533;-34.520;150.798;2023-04-24T09:43:32;102181.41;;;22.65;56.83
63399;BME280;49533;-34.520;150.798;2023-04-24T09:46:05;102179.09;;;22.67;56.95
63399;BME280;49533;-34.520;150.798;2023-04-24T09:48:35;102184.63;;;22.67;57.04
63399;BME280;49533;-34.520;150.798;2023-04-24T09:51:05;102197.19;;;22.76;57.01
63399;BME280;49533;-34.520;150.798;2023-04-24T09:53:33;102180.25;;;22.66;57.02
63399;BME280;49533;-34.520;150.798;2023-04-24T09:56:08;102199.16;;;22.76;56.91
63399;BME280;49533;-34.520;150.798;2023-04-24T09:58:36;102200.31;;;22.75;57.09
63399;BME280;49533;-34.520;150.798;2023-04-24T10:01:04;102175.28;;;22.59;56.97
63399;BME280;49533;-34.520;150.798;2023-04-24T10:03:32;102201.81;;;22.72;56.90
63399;BME280;49533;-34.520;150.798;2023-04-24T10:06:01;102166.19;;;22.46;56.97
63399;BME280;49533;-34.520;150.798;2023-04-24T10:08:36;102201.00;;;22.72;56.99
63399;BME280;49533;-34.520;150.798;2023-04-24T10:11:03;102183.28;;;22.61;57.10
63399;BME280;49533;-34.520;150.798;2023-04-24T10:13:31;102161.81;;;22.45;56.96
63399;BME280;49533;-34.520;150.798;2023-04-24T10:16:00;102171.09;;;22.25;56.89
63399;BME280;49533;-34.520;150.798;2023-04-24T10:18:27;102176.56;;;22.49;56.88
63399;BME280;49533;-34.520;150.798;2023-04-24T10:20:55;102156.06;;;22.38;57.36
63399;BME280;49533;-34.520;150.798;2023-04-24T10:23:24;102208.44;;;22.68;57.20
63399;BME280;49533;-34.520;150.798;2023-04-24T10:25:52;102155.50;;;22.32;57.36
63399;BME280;49533;-34.520;150.798;2023-04-24T10:28:21;102214.63;;;22.65;57.33
63399;BME280;49533;-34.520;150.798;2023-04-24T10:30:49;102220.88;;;22.62;57.25
63399;BME280;49533;-34.520;150.798;2023-04-24T10:33:18;102205.44;;;22.61;57.45
63399;BME280;49533;-34.520;150.798;2023-04-24T10:35:47;102164.16;;;22.31;57.39
63399;BME280;49533;-34.520;150.798;2023-04-24T10:38:21;102213.28;;;22.58;57.35
63399;BME280;49533;-34.520;150.798;2023-04-24T10:40:51;102217.22;;;22.57;57.50
63399;BME280;49533;-34.520;150.798;2023-04-24T10:43:19;102179.38;;;22.37;57.52
63399;BME280;49533;-34.520;150.798;2023-04-24T10:46:01;102200.84;;;22.52;57.67
63399;BME280;49533;-34.520;150.798;2023-04-24T10:48:29;102174.75;;;22.29;57.65
63399;BME280;49533;-34.520;150.798;2023-04-24T10:50:56;102145.91;;;22.18;57.58
63399;BME280;49533;-34.520;150.798;2023-04-24T10:53:28;102207.63;;;22.55;57.45
63399;BME280;49533;-34.520;150.798;2023-04-24T10:56:02;102163.81;;;22.20;57.77
63399;BME280;49533;-34.520;150.798;2023-04-24T10:58:40;102179.38;;;22.25;58.07
63399;BME280;49533;-34.520;150.798;2023-04-24T11:01:10;102183.28;;;22.36;57.47
63399;BME280;49533;-34.520;150.798;2023-04-24T11:03:54;102187.09;;;22.31;57.84
63399;BME280;49533;-34.520;150.798;2023-04-24T11:06:33;102207.88;;;22.50;57.85
63399;BME280;49533;-34.520;150.798;2023-04-24T11:09:04;102206.84;;;22.42;57.91
63399;BME280;49533;-34.520;150.798;2023-04-24T11:11:33;102209.16;;;22.40;57.99
63399;BME280;49533;-34.520;150.798;2023-04-24T11:14:02;102212.16;;;22.47;58.09
63399;BME280;49533;-34.520;150.798;2023-04-24T11:16:32;102211.69;;;22.45;57.92
63399;BME280;49533;-34.520;150.798;2023-04-24T11:19:07;102145.81;;;22.02;57.95
63399;BME280;49533;-34.520;150.798;2023-04-24T11:21:41;102162.03;;;22.15;58.07
63399;BME280;49533;-34.520;150.798;2023-04-24T11:27:16;102201.63;;;22.41;58.26
63399;BME280;49533;-34.520;150.798;2023-04-24T11:32:36;102207.19;;;22.41;58.17
63399;BME280;49533;-34.520;150.798;2023-04-24T11:35:17;102204.75;;;22.39;57.97
63399;BME280;49533;-34.520;150.798;2023-04-24T11:37:47;102197.38;;;22.31;57.98
63399;BME280;49533;-34.520;150.798;2023-04-24T11:40:17;102146.50;;;21.99;58.07
63399;BME280;49533;-34.520;150.798;2023-04-24T11:42:52;102140.25;;;22.02;58.43
63399;BME280;49533;-34.520;150.798;2023-04-24T11:45:25;102152.38;;;22.09;58.13
63399;BME280;49533;-34.520;150.798;2023-04-24T11:47:53;102163.69;;;22.17;58.25
63399;BME280;49533;-34.520;150.798;2023-04-24T11:50:23;102175.44;;;22.26;58.14
63399;BME280;49533;-34.520;150.798;2023-04-24T11:52:52;102121.00;;;21.93;58.40
63399;BME280;49533;-34.520;150.798;2023-04-24T11:55:25;102166.69;;;22.24;58.33
63399;BME280;49533;-34.520;150.798;2023-04-24T11:57:56;102152.38;;;22.09;58.27
63399;BME280;49533;-34.520;150.798;2023-04-24T12:00:26;102181.47;;;22.28;58.21
63399;BME280;49533;-34.520;150.798;2023-04-24T12:03:05;102155.38;;;22.17;58.42
63399;BME280;49533;-34.520;150.798;2023-04-24T12:05:33;102154.91;;;22.14;58.49
63399;BME280;49533;-34.520;150.798;2023-04-24T12:08:01;102173.84;;;22.25;58.66
63399;BME280;49533;-34.520;150.798;2023-04-24T12:10:30;102155.81;;;22.19;58.52
63399;BME280;49533;-34.520;150.798;2023-04-24T12:12:58;102128.50;;;22.05;58.76
63399;BME280;49533;-34.520;150.798;2023-04-24T12:15:27;102139.00;;;22.11;58.68
63399;BME280;49533;-34.520;150.798;2023-04-24T12:17:55;102130.94;;;22.06;58.66
63399;BME280;49533;-34.520;150.798;2023-04-24T12:20:26;102070.28;;;21.64;58.38
63399;BME280;49533;-34.520;150.798;2023-04-24T12:22:55;102146.88;;;22.22;58.35
63399;BME280;49533;-34.520;150.798;2023-04-24T12:25:26;102141.66;;;22.20;58.80
63399;BME280;49533;-34.520;150.798;2023-04-24T12:28:11;102110.06;;;21.97;58.67
63399;BME280;49533;-34.520;150.798;2023-04-24T12:30:43;102114.41;;;21.98;58.52
63399;BME280;49533;-34.520;150.798;2023-04-24T12:33:11;102133.47;;;22.11;58.60